sensor_id;sensor_type;location;lat;lon;timestamp;P1;durP1;ratioP1;P2;durP2;ratioP2
10491;SDS011;5293;51.464;-2.566;2023-05-02T00:01:19;6.27;;;4.10;;
10491;SDS011;5293;51.464;-2.566;2023-05-02T00:03:45;10.30;;;4.43;;
10491;SDS011;5293;51.464;-2.566;2023-05-02T00:06:10;8.13;;;4.60;;
10491;SDS011;5293;51.464;-2.566;2023-05-02T00:08:36;7.70;;;4.50;;
10491;SDS011;5293;51.464;-2.566;2023-05-02T00:11:02;5.87;;;4.43;;
10491;SDS011;5293;51.464;-2.566;2023-05-02T00:13:28;9.47;;;4.70;;
10491;SDS011;5293;51.464;-2.566;2023-05-02T00:15:53;7.50;;;4.57;;
10491;SDS011;5293;51.464;-2.566;2023-05-02T00:18:19;7.10;;;4.33;;
10491;SDS011;5293;51.464;-2.566;2023-05-02T00:20:45;11.03;;;4.50;;
10491;SDS011;5293;51.464;-2.566;2023-05-02T00:23:10;7.27;;;4.20;;
10491;SDS011;5293;51.464;-2.566;2023-05-02T00:25:42;9.10;;;4.40;;
10491;SDS011;5293;51.464;-2.566;2023-05-02T00:28:10;7.00;;;4.20;;
10491;SDS011;5293;51.464;-2.566;2023-05-02T00:30:41;3.63;;;3.33;;
10491;SDS011;5293;51.464;-2.566;2023-05-02T00:33:08;4.23;;;3.77;;
10491;SDS011;5293;51.464;-2.566;2023-05-02T00:35:33;4.93;;;3.20;;
10491;SDS011;5293;51.464;-2.566;2023-05-02T00:37:59;3.93;;;3.50;;
10491;SDS011;5293;51.464;-2.566;2023-05-02T00:40:25;3.97;;;3.40;;
10491;SDS011;5293;51.464;-2.566;2023-05-02T00:42:50;6.00;;;4.13;;
10491;SDS011;5293;51.464;-2.566;2023-05-02T00:45:16;4.37;;;3.53;;
10491;SDS011;5293;51.464;-2.566;2023-05-02T00:47:42;4.37;;;3.77;;
10491;SDS011;5293;51.464;-2.566;2023-05-02T00:50:08;4.67;;;3.80;;
10491;SDS011;5293;51.464;-2.566;2023-05-02T00:52:34;4.33;;;3.43;;
10491;SDS011;5293;51.464;-2.566;2023-05-02T00:55:01;5.40;;;4.00;;
10491;SDS011;5293;51.464;-2.566;2023-05-02T00:57:27;5.23;;;4.23;;
10491;SDS011;5293;51.464;-2.566;2023-05-02T00:59:53;5.30;;;4.00;;
10491;SDS011;5293;51.464;-2.566;2023-05-02T01:05:14;4.23;;;3.83;;
10491;SDS011;5293;51.464;-2.566;2023-05-02T01:10:29;3.93;;;3.63;;
10491;SDS011;5293;51.464;-2.566;2023-05-02T01:13:16;6.13;;;4.73;;
10491;SDS011;5293;51.464;-2.566;2023-05-02T01:15:50;6.57;;;5.13;;
10491;SDS011;5293;51.464;-2.566;2023-05-02T01:18:21;6.27;;;4.97;;
10491;SDS011;5293;51.464;-2.566;2023-05-02T01:20:58;7.33;;;5.03;;
10491;SDS011;5293;51.464;-2.566;2023-05-02T01:23:37;5.73;;;5.20;;
10491;SDS011;5293;51.464;-2.566;2023-05-02T01:29:16;6.20;;;5.00;;
10491;SDS011;5293;51.464;-2.566;2023-05-02T01:31:45;7.33;;;4.90;;
10491;SDS011;5293;51.464;-2.566;2023-05-02T01:34:14;6.33;;;4.83;;
10491;SDS011;5293;51.464;-2.566;2023-05-02T01:36:44;8.00;;;4.57;;
10491;SDS011;5293;51.464;-2.566;2023-05-02T01:39:14;5.70;;;4.57;;
10491;SDS011;5293;51.464;-2.566;2023-05-02T01:41:44;6.30;;;4.83;;
10491;SDS011;5293;51.464;-2.566;2023-05-02T01:44:13;6.93;;;5.63;;
10491;SDS011;5293;51.464;-2.566;2023-05-02T01:46:41;7.07;;;5.37;;
10491;SDS011;5293;51.464;-2.566;2023-05-02T01:49:08;5.70;;;5.00;;
10491;SDS011;5293;51.464;-2.566;2023-05-02T01:51:36;8.33;;;5.53;;
10491;SDS011;5293;51.464;-2.566;2023-05-02T01:54:11;6.60;;;5.20;;
10491;SDS011;5293;51.464;-2.566;2023-05-02T01:56:39;7.47;;;5.10;;
10491;SDS011;5293;51.464;-2.566;2023-05-02T01:59:07;7.57;;;4.97;;
10491;SDS011;5293;51.464;-2.566;2023-05-02T02:01:36;6.43;;;5.07;;
10491;SDS011;5293;51.464;-2.566;2023-05-02T02:04:04;6.23;;;4.70;;
10491;SDS011;5293;51.464;-2.566;2023-05-02T02:06:32;8.70;;;5.40;;
10491;SDS011;5293;51.464;-2.566;2023-05-02T02:08:59;8.90;;;5.40;;
10491;SDS011;5293;51.464;-2.566;2023-05-02T02:11:35;8.70;;;5.70;;
10491;SDS011;5293;51.464;-2.566;2023-05-02T02:14:11;8.23;;;6.07;;
10491;SDS011;5293;51.464;-2.566;2023-05-02T02:16:46;8.00;;;6.27;;
10491;SDS011;5293;51.464;-2.566;2023-05-02T02:19:14;8.90;;;6.17;;
10491;SDS011;5293;51.464;-2.566;2023-05-02T02:21:43;7.40;;;5.77;;
10491;SDS011;5293;51.464;-2.566;2023-05-02T02:24:12;6.27;;;5.37;;
10491;SDS011;5293;51.464;-2.566;2023-05-02T02:26:39;7.03;;;5.50;;
10491;SDS011;5293;51.464;-2.566;2023-05-02T02:29:05;8.30;;;5.37;;
10491;SDS011;5293;51.464;-2.566;2023-05-02T02:31:34;5.80;;;5.03;;
10491;SDS011;5293;51.464;-2.566;2023-05-02T02:34:00;6.40;;;4.90;;
10491;SDS011;5293;51.464;-2.566;2023-05-02T02:36:33;7.03;;;4.77;;
10491;SDS011;5293;51.464;-2.566;2023-05-02T02:39:18;8.80;;;5.93;;
10491;SDS011;5293;51.464;-2.566;2023-05-02T02:47:40;8.47;;;5.47;;
10491;SDS011;5293;51.464;-2.566;2023-05-02T02:55:30;6.03;;;5.37;;
10491;SDS011;5293;51.464;-2.566;2023-05-02T02:58:09;6.00;;;5.40;;
10491;SDS011;5293;51.464;-2.566;2023-05-02T03:00:56;8.73;;;5.33;;
10491;SDS011;5293;51.464;-2.566;2023-05-02T03:03:26;6.97;;;5.33;;
10491;SDS011;5293;51.464;-2.566;2023-05-02T03:05:56;6.37;;;5.77;;
10491;SDS011;5293;51.464;-2.566;2023-05-02T03:08:23;6.60;;;5.93;;
10491;SDS011;5293;51.464;-2.566;2023-05-02T03:10:48;7.20;;;5.67;;
10491;SDS011;5293;51.464;-2.566;2023-05-02T03:13:15;6.73;;;5.70;;
10491;SDS011;5293;51.464;-2.566;2023-05-02T03:18:19;7.97;;;6.10;;
10491;SDS011;5293;51.464;-2.566;2023-05-02T03:20:44;6.07;;;5.33;;
10491;SDS011;5293;51.464;-2.566;2023-05-02T03:23:10;8.20;;;6.10;;
10491;SDS011;5293;51.464;-2.566;2023-05-02T03:25:36;7.20;;;5.60;;
10491;SDS011;5293;51.464;-2.566;2023-05-02T03:28:02;7.67;;;6.00;;
10491;SDS011;5293;51.464;-2.566;2023-05-02T03:30:28;7.83;;;6.00;;
10491;SDS011;5293;51.464;-2.566;2023-05-02T03:32:54;8.00;;;5.93;;
10491;SDS011;5293;51.464;-2.566;2023-05-02T03:35:20;7.23;;;5.73;;
10491;SDS011;5293;51.464;-2.566;2023-05-02T03:37:45;7.13;;;6.00;;
10491;SDS011;5293;51.464;-2.566;2023-05-02T03:40:11;7.17;;;6.20;;
10491;SDS011;5293;51.464;-2.566;2023-05-02T03:42:37;8.97;;;6.43;;
10491;SDS011;5293;51.464;-2.566;2023-05-02T03:45:06;8.80;;;6.43;;
10491;SDS011;5293;51.464;-2.566;2023-05-02T03:47:32;7.37;;;6.57;;
10491;SDS011;5293;51.464;-2.566;2023-05-02T03:49:58;7.87;;;6.43;;
10491;SDS011;5293;51.464;-2.566;2023-05-02T03:52:24;8.23;;;6.07;;
10491;SDS011;5293;51.464;-2.566;2023-05-02T03:54:50;7.67;;;6.13;;
10491;SDS011;5293;51.464;-2.566;2023-05-02T03:57:17;7.23;;;6.33;;
10491;SDS011;5293;51.464;-2.566;2023-05-02T03:59:42;7.87;;;6.47;;
10491;SDS011;5293;51.464;-2.566;2023-05-02T04:02:12;6.73;;;6.00;;
10491;SDS011;5293;51.464;-2.566;2023-05-02T04:04:39;8.40;;;6.03;;
10491;SDS011;5293;51.464;-2.566;2023-05-02T04:07:05;7.53;;;6.33;;
10491;SDS011;5293;51.464;-2.566;2023-05-02T04:09:39;7.20;;;6.10;;
10491;SDS011;5293;51.464;-2.566;2023-05-02T04:12:05;11.47;;;6.37;;
10491;SDS011;5293;51.464;-2.566;2023-05-02T04:14:30;8.33;;;7.37;;
10491;SDS011;5293;51.464;-2.566;2023-05-02T04:16:56;7.27;;;6.57;;
10491;SDS011;5293;51.464;-2.566;2023-05-02T04:19:22;8.53;;;6.33;;
10491;SDS011;5293;51.464;-2.566;2023-05-02T04:21:47;7.63;;;5.97;;
10491;SDS011;5293;51.464;-2.566;2023-05-02T04:24:13;9.03;;;6.60;;
10491;SDS011;5293;51.464;-2.566;2023-05-02T04:26:39;9.00;;;6.47;;
10491;SDS011;5293;51.464;-2.566;2023-05-02T04:29:05;9.93;;;6.37;;
10491;SDS011;5293;51.464;-2.566;2023-05-02T04:31:31;9.07;;;6.50;;
10491;SDS011;5293;51.464;-2.566;2023-05-02T04:33:57;10.90;;;7.23;;
10491;SDS011;5293;51.464;-2.566;2023-05-02T04:36:23;8.73;;;6.60;;
10491;SDS011;5293;51.464;-2.566;2023-05-02T04:38:50;8.70;;;6.67;;
10491;SDS011;5293;51.464;-2.566;2023-05-02T04:41:16;10.03;;;7.10;;
10491;SDS011;5293;51.464;-2.566;2023-05-02T04:43:42;11.97;;;7.67;;
10491;SDS011;5293;51.464;-2.566;2023-05-02T04:46:08;9.47;;;7.10;;
10491;SDS011;5293;51.464;-2.566;2023-05-02T04:48:34;10.37;;;7.83;;
10491;SDS011;5293;51.464;-2.566;2023-05-02T04:50:59;11.70;;;7.10;;
10491;SDS011;5293;51.464;-2.566;2023-05-02T04:53:25;9.63;;;7.17;;
10491;SDS011;5293;51.464;-2.566;2023-05-02T04:55:51;8.53;;;7.03;;
10491;SDS011;5293;51.464;-2.566;2023-05-02T04:58:17;10.03;;;7.73;;
10491;SDS011;5293;51.464;-2.566;2023-05-02T05:00:43;10.53;;;7.70;;
10491;SDS011;5293;51.464;-2.566;2023-05-02T05:03:08;11.97;;;8.17;;
10491;SDS011;5293;51.464;-2.566;2023-05-02T05:05:34;10.07;;;7.57;;
10491;SDS011;5293;51.464;-2.566;2023-05-02T05:08:00;11.37;;;8.33;;
10491;SDS011;5293;51.464;-2.566;2023-05-02T05:10:25;12.43;;;8.83;;
10491;SDS011;5293;51.464;-2.566;2023-05-02T05:12:51;11.97;;;8.17;;
10491;SDS011;5293;51.464;-2.566;2023-05-02T05:15:17;13.33;;;9.13;;
10491;SDS011;5293;51.464;-2.566;2023-05-02T05:17:46;11.53;;;9.20;;
10491;SDS011;5293;51.464;-2.566;2023-05-02T05:20:12;14.03;;;8.77;;
10491;SDS011;5293;51.464;-2.566;2023-05-02T05:22:40;11.37;;;8.77;;
10491;SDS011;5293;51.464;-2.566;2023-05-02T05:25:09;11.53;;;9.00;;
10491;SDS011;5293;51.464;-2.566;2023-05-02T05:27:35;13.90;;;9.07;;
10491;SDS011;5293;51.464;-2.566;2023-05-02T05:30:02;12.27;;;9.30;;
10491;SDS011;5293;51.464;-2.566;2023-05-02T05:32:32;14.73;;;9.73;;
10491;SDS011;5293;51.464;-2.566;2023-05-02T05:34:58;14.77;;;9.60;;
10491;SDS011;5293;51.464;-2.566;2023-05-02T05:37:25;11.90;;;9.37;;
10491;SDS011;5293;51.464;-2.566;2023-05-02T05:39:50;13.43;;;9.17;;
10491;SDS011;5293;51.464;-2.566;2023-05-02T05:42:16;14.00;;;10.67;;
10491;SDS011;5293;51.464;-2.566;2023-05-02T05:44:42;12.57;;;9.50;;
10491;SDS011;5293;51.464;-2.566;2023-05-02T05:47:07;12.80;;;10.00;;
10491;SDS011;5293;51.464;-2.566;2023-05-02T05:49:33;14.00;;;9.83;;
10491;SDS011;5293;51.464;-2.566;2023-05-02T05:52:00;13.83;;;9.87;;
10491;SDS011;5293;51.464;-2.566;2023-05-02T05:54:26;12.60;;;9.83;;
10491;SDS011;5293;51.464;-2.566;2023-05-02T05:56:52;11.47;;;9.80;;
10491;SDS011;5293;51.464;-2.566;2023-05-02T05:59:17;14.53;;;10.00;;
10491;SDS011;5293;51.464;-2.566;2023-05-02T06:01:43;14.43;;;9.60;;
10491;SDS011;5293;51.464;-2.566;2023-05-02T06:04:09;12.73;;;9.33;;
10491;SDS011;5293;51.464;-2.566;2023-05-02T06:06:35;12.67;;;9.00;;
10491;SDS011;5293;51.464;-2.566;2023-05-02T06:09:00;11.03;;;9.10;;
10491;SDS011;5293;51.464;-2.566;2023-05-02T06:11:26;12.23;;;8.70;;
10491;SDS011;5293;51.464;-2.566;2023-05-02T06:13:52;11.43;;;8.73;;
10491;SDS011;5293;51.464;-2.566;2023-05-02T06:16:18;11.17;;;8.57;;
10491;SDS011;5293;51.464;-2.566;2023-05-02T06:18:44;12.13;;;9.13;;
10491;SDS011;5293;51.464;-2.566;2023-05-02T06:21:10;12.57;;;8.93;;
10491;SDS011;5293;51.464;-2.566;2023-05-02T06:23:36;12.57;;;8.60;;
10491;SDS011;5293;51.464;-2.566;2023-05-02T06:26:02;11.93;;;9.83;;
10491;SDS011;5293;51.464;-2.566;2023-05-02T06:28:29;13.80;;;9.47;;
10491;SDS011;5293;51.464;-2.566;2023-05-02T06:31:00;14.20;;;9.77;;
10491;SDS011;5293;51.464;-2.566;2023-05-02T06:33:28;13.43;;;9.20;;
10491;SDS011;5293;51.464;-2.566;2023-05-02T06:35:53;12.17;;;9.33;;
10491;SDS011;5293;51.464;-2.566;2023-05-02T06:38:19;13.90;;;9.23;;
10491;SDS011;5293;51.464;-2.566;2023-05-02T06:40:46;14.33;;;9.60;;
10491;SDS011;5293;51.464;-2.566;2023-05-02T06:43:12;15.53;;;9.37;;
10491;SDS011;5293;51.464;-2.566;2023-05-02T06:45:38;13.97;;;10.23;;
10491;SDS011;5293;51.464;-2.566;2023-05-02T06:48:04;12.77;;;9.43;;
10491;SDS011;5293;51.464;-2.566;2023-05-02T06:50:31;13.93;;;10.57;;
10491;SDS011;5293;51.464;-2.566;2023-05-02T06:52:57;10.97;;;8.77;;
10491;SDS011;5293;51.464;-2.566;2023-05-02T06:55:22;14.23;;;9.73;;
10491;SDS011;5293;51.464;-2.566;2023-05-02T06:57:48;12.00;;;9.67;;
10491;SDS011;5293;51.464;-2.566;2023-05-02T07:00:15;13.10;;;9.63;;
10491;SDS011;5293;51.464;-2.566;2023-05-02T07:02:41;12.03;;;9.33;;
10491;SDS011;5293;51.464;-2.566;2023-05-02T07:05:07;11.27;;;8.97;;
10491;SDS011;5293;51.464;-2.566;2023-05-02T07:07:33;11.80;;;9.13;;
10491;SDS011;5293;51.464;-2.566;2023-05-02T07:09:58;15.50;;;9.20;;
10491;SDS011;5293;51.464;-2.566;2023-05-02T07:12:24;11.97;;;9.03;;
10491;SDS011;5293;51.464;-2.566;2023-05-02T07:14:50;12.30;;;9.27;;
10491;SDS011;5293;51.464;-2.566;2023-05-02T07:17:16;12.10;;;8.80;;
10491;SDS011;5293;51.464;-2.566;2023-05-02T07:19:42;11.90;;;8.73;;
10491;SDS011;5293;51.464;-2.566;2023-05-02T07:22:08;12.20;;;9.27;;
10491;SDS011;5293;51.464;-2.566;2023-05-02T07:24:33;11.97;;;8.30;;
10491;SDS011;5293;51.464;-2.566;2023-05-02T07:26:59;11.17;;;8.23;;
10491;SDS011;5293;51.464;-2.566;2023-05-02T07:29:25;11.87;;;8.10;;
10491;SDS011;5293;51.464;-2.566;2023-05-02T07:31:51;13.00;;;7.60;;
10491;SDS011;5293;51.464;-2.566;2023-05-02T07:34:17;8.23;;;7.43;;
10491;SDS011;5293;51.464;-2.566;2023-05-02T07:36:42;8.47;;;7.30;;
10491;SDS011;5293;51.464;-2.566;2023-05-02T07:39:08;9.17;;;7.57;;
10491;SDS011;5293;51.464;-2.566;2023-05-02T07:41:34;10.73;;;7.30;;
10491;SDS011;5293;51.464;-2.566;2023-05-02T07:44:00;9.83;;;6.83;;
10491;SDS011;5293;51.464;-2.566;2023-05-02T07:46:25;10.27;;;7.20;;
10491;SDS011;5293;51.464;-2.566;2023-05-02T07:48:51;8.67;;;6.87;;
10491;SDS011;5293;51.464;-2.566;2023-05-02T07:51:18;11.17;;;7.27;;
10491;SDS011;5293;51.464;-2.566;2023-05-02T07:53:45;12.90;;;7.80;;
10491;SDS011;5293;51.464;-2.566;2023-05-02T07:56:14;11.03;;;7.47;;
10491;SDS011;5293;51.464;-2.566;2023-05-02T07:58:40;8.73;;;7.17;;
10491;SDS011;5293;51.464;-2.566;2023-05-02T08:01:05;8.97;;;7.20;;
10491;SDS011;5293;51.464;-2.566;2023-05-02T08:03:31;11.13;;;7.57;;
10491;SDS011;5293;51.464;-2.566;2023-05-02T08:05:57;14.47;;;7.87;;
10491;SDS011;5293;51.464;-2.566;2023-05-02T08:08:23;9.97;;;7.43;;
10491;SDS011;5293;51.464;-2.566;2023-05-02T08:10:49;13.43;;;7.70;;
10491;SDS011;5293;51.464;-2.566;2023-05-02T08:13:15;13.87;;;8.53;;
10491;SDS011;5293;51.464;-2.566;2023-05-02T08:15:41;11.40;;;7.90;;
10491;SDS011;5293;51.464;-2.566;2023-05-02T08:18:07;12.07;;;7.50;;
10491;SDS011;5293;51.464;-2.566;2023-05-02T08:20:32;12.60;;;8.20;;
10491;SDS011;5293;51.464;-2.566;2023-05-02T08:22:58;14.03;;;8.70;;
10491;SDS011;5293;51.464;-2.566;2023-05-02T08:25:23;13.60;;;8.60;;
10491;SDS011;5293;51.464;-2.566;2023-05-02T08:27:49;14.00;;;8.97;;
10491;SDS011;5293;51.464;-2.566;2023-05-02T08:30:15;13.57;;;9.20;;
10491;SDS011;5293;51.464;-2.566;2023-05-02T08:32:40;14.17;;;8.63;;
10491;SDS011;5293;51.464;-2.566;2023-05-02T08:35:06;11.33;;;9.43;;
10491;SDS011;5293;51.464;-2.566;2023-05-02T08:37:32;15.03;;;10.37;;
10491;SDS011;5293;51.464;-2.566;2023-05-02T08:39:59;14.77;;;9.40;;
10491;SDS011;5293;51.464;-2.566;2023-05-02T08:42:25;13.73;;;10.93;;
10491;SDS011;5293;51.464;-2.566;2023-05-02T08:44:51;14.17;;;10.23;;
10491;SDS011;5293;51.464;-2.566;2023-05-02T08:47:17;20.03;;;12.20;;
10491;SDS011;5293;51.464;-2.566;2023-05-02T08:49:43;16.63;;;11.40;;
10491;SDS011;5293;51.464;-2.566;2023-05-02T08:52:11;16.33;;;11.90;;
10491;SDS011;5293;51.464;-2.566;2023-05-02T08:54:37;16.20;;;10.93;;
10491;SDS011;5293;51.464;-2.566;2023-05-02T08:57:03;18.73;;;12.20;;
10491;SDS011;5293;51.464;-2.566;2023-05-02T08:59:29;22.13;;;12.37;;
10491;SDS011;5293;51.464;-2.566;2023-05-02T09:01:59;16.20;;;12.10;;
10491;SDS011;5293;51.464;-2.566;2023-05-02T09:04:31;16.13;;;11.40;;
10491;SDS011;5293;51.464;-2.566;2023-05-02T09:07:02;17.00;;;10.97;;
10491;SDS011;5293;51.464;-2.566;2023-05-02T09:09:28;14.03;;;11.30;;
10491;SDS011;5293;51.464;-2.566;2023-05-02T09:11:56;17.90;;;11.90;;
10491;SDS011;5293;51.464;-2.566;2023-05-02T09:14:22;19.30;;;11.73;;
10491;SDS011;5293;51.464;-2.566;2023-05-02T09:16:48;15.60;;;10.93;;
10491;SDS011;5293;51.464;-2.566;2023-05-02T09:19:22;18.43;;;12.43;;
10491;SDS011;5293;51.464;-2.566;2023-05-02T09:21:50;16.30;;;12.73;;
10491;SDS011;5293;51.464;-2.566;2023-05-02T09:24:16;16.33;;;12.40;;
10491;SDS011;5293;51.464;-2.566;2023-05-02T09:26:56;17.40;;;11.30;;
10491;SDS011;5293;51.464;-2.566;2023-05-02T09:29:30;16.00;;;10.93;;
10491;SDS011;5293;51.464;-2.566;2023-05-02T09:32:00;16.07;;;11.50;;
10491;SDS011;5293;51.464;-2.566;2023-05-02T09:34:26;17.30;;;12.77;;
10491;SDS011;5293;51.464;-2.566;2023-05-02T09:36:52;18.43;;;11.87;;
10491;SDS011;5293;51.464;-2.566;2023-05-02T09:39:24;17.07;;;12.43;;
10491;SDS011;5293;51.464;-2.566;2023-05-02T09:41:51;14.80;;;11.13;;
10491;SDS011;5293;51.464;-2.566;2023-05-02T09:44:17;16.97;;;10.90;;
10491;SDS011;5293;51.464;-2.566;2023-05-02T09:46:49;19.07;;;10.47;;
10491;SDS011;5293;51.464;-2.566;2023-05-02T09:49:16;12.47;;;10.10;;
10491;SDS011;5293;51.464;-2.566;2023-05-02T09:51:48;11.47;;;9.00;;
10491;SDS011;5293;51.464;-2.566;2023-05-02T09:54:17;13.07;;;9.77;;
10491;SDS011;5293;51.464;-2.566;2023-05-02T09:57:01;12.80;;;8.70;;
10491;SDS011;5293;51.464;-2.566;2023-05-02T09:59:28;15.70;;;9.30;;
10491;SDS011;5293;51.464;-2.566;2023-05-02T10:01:55;13.35;;;10.18;;
10491;SDS011;5293;51.464;-2.566;2023-05-02T10:04:22;13.03;;;9.73;;
10491;SDS011;5293;51.464;-2.566;2023-05-02T10:06:49;13.63;;;9.43;;
10491;SDS011;5293;51.464;-2.566;2023-05-02T10:09:16;11.47;;;8.00;;
10491;SDS011;5293;51.464;-2.566;2023-05-02T10:11:47;9.60;;;7.73;;
10491;SDS011;5293;51.464;-2.566;2023-05-02T10:14:19;8.13;;;7.10;;
10491;SDS011;5293;51.464;-2.566;2023-05-02T10:16:59;8.77;;;7.33;;
10491;SDS011;5293;51.464;-2.566;2023-05-02T10:19:40;11.37;;;8.17;;
10491;SDS011;5293;51.464;-2.566;2023-05-02T10:22:18;9.73;;;7.83;;
10491;SDS011;5293;51.464;-2.566;2023-05-02T10:24:45;12.83;;;8.30;;
10491;SDS011;5293;51.464;-2.566;2023-05-02T10:27:13;8.07;;;6.77;;
10491;SDS011;5293;51.464;-2.566;2023-05-02T10:29:39;9.52;;;7.60;;
10491;SDS011;5293;51.464;-2.566;2023-05-02T10:32:06;8.23;;;7.27;;
10491;SDS011;5293;51.464;-2.566;2023-05-02T10:34:33;9.02;;;7.20;;
10491;SDS011;5293;51.464;-2.566;2023-05-02T10:37:00;7.97;;;7.17;;
10491;SDS011;5293;51.464;-2.566;2023-05-02T10:39:29;8.73;;;6.53;;
10491;SDS011;5293;51.464;-2.566;2023-05-02T10:41:57;10.73;;;7.57;;
10491;SDS011;5293;51.464;-2.566;2023-05-02T10:44:31;8.67;;;7.03;;
10491;SDS011;5293;51.464;-2.566;2023-05-02T10:47:00;9.67;;;7.03;;
10491;SDS011;5293;51.464;-2.566;2023-05-02T10:49:55;9.13;;;6.97;;
10491;SDS011;5293;51.464;-2.566;2023-05-02T10:52:28;9.38;;;7.63;;
10491;SDS011;5293;51.464;-2.566;2023-05-02T10:55:12;8.63;;;6.60;;
10491;SDS011;5293;51.464;-2.566;2023-05-02T11:00:27;8.20;;;6.77;;
10491;SDS011;5293;51.464;-2.566;2023-05-02T11:02:57;7.00;;;6.27;;
10491;SDS011;5293;51.464;-2.566;2023-05-02T11:05:24;9.47;;;6.30;;
10491;SDS011;5293;51.464;-2.566;2023-05-02T11:10:48;7.67;;;6.33;;
10491;SDS011;5293;51.464;-2.566;2023-05-02T11:13:14;7.87;;;6.37;;
10491;SDS011;5293;51.464;-2.566;2023-05-02T11:18:05;10.23;;;5.93;;
10491;SDS011;5293;51.464;-2.566;2023-05-02T11:20:33;10.73;;;6.53;;
10491;SDS011;5293;51.464;-2.566;2023-05-02T11:25:41;9.07;;;6.05;;
10491;SDS011;5293;51.464;-2.566;2023-05-02T11:31:01;8.60;;;6.37;;
10491;SDS011;5293;51.464;-2.566;2023-05-02T11:33:28;7.17;;;6.27;;
10491;SDS011;5293;51.464;-2.566;2023-05-02T11:35:54;9.43;;;6.97;;
10491;SDS011;5293;51.464;-2.566;2023-05-02T11:38:24;8.80;;;6.20;;
10491;SDS011;5293;51.464;-2.566;2023-05-02T11:40:55;7.77;;;6.20;;
10491;SDS011;5293;51.464;-2.566;2023-05-02T11:43:23;9.13;;;6.60;;
10491;SDS011;5293;51.464;-2.566;2023-05-02T11:45:50;7.73;;;5.87;;
10491;SDS011;5293;51.464;-2.566;2023-05-02T11:48:18;8.47;;;6.73;;
10491;SDS011;5293;51.464;-2.566;2023-05-02T11:53:13;8.43;;;6.37;;
10491;SDS011;5293;51.464;-2.566;2023-05-02T11:55:50;8.17;;;5.90;;
10491;SDS011;5293;51.464;-2.566;2023-05-02T11:58:26;8.63;;;6.27;;
10491;SDS011;5293;51.464;-2.566;2023-05-02T12:00:56;7.30;;;5.53;;
10491;SDS011;5293;51.464;-2.566;2023-05-02T12:03:29;7.90;;;5.80;;
10491;SDS011;5293;51.464;-2.566;2023-05-02T12:05:56;8.67;;;6.20;;
10491;SDS011;5293;51.464;-2.566;2023-05-02T12:08:32;9.13;;;6.33;;
10491;SDS011;5293;51.464;-2.566;2023-05-02T12:10:58;8.77;;;6.20;;
10491;SDS011;5293;51.464;-2.566;2023-05-02T12:13:24;7.00;;;6.20;;
10491;SDS011;5293;51.464;-2.566;2023-05-02T12:15:51;7.97;;;5.90;;
10491;SDS011;5293;51.464;-2.566;2023-05-02T12:18:18;7.50;;;6.10;;
10491;SDS011;5293;51.464;-2.566;2023-05-02T12:20:47;7.23;;;5.50;;
10491;SDS011;5293;51.464;-2.566;2023-05-02T12:23:15;7.17;;;5.33;;
10491;SDS011;5293;51.464;-2.566;2023-05-02T12:25:42;7.53;;;5.17;;
10491;SDS011;5293;51.464;-2.566;2023-05-02T12:28:08;7.20;;;5.63;;
10491;SDS011;5293;51.464;-2.566;2023-05-02T12:30:35;7.07;;;4.80;;
10491;SDS011;5293;51.464;-2.566;2023-05-02T12:33:05;6.10;;;4.43;;
10491;SDS011;5293;51.464;-2.566;2023-05-02T12:35:32;8.37;;;5.07;;
10491;SDS011;5293;51.464;-2.566;2023-05-02T12:38:08;7.47;;;6.07;;
10491;SDS011;5293;51.464;-2.566;2023-05-02T12:40:35;7.10;;;5.27;;
10491;SDS011;5293;51.464;-2.566;2023-05-02T12:43:01;6.87;;;5.37;;
10491;SDS011;5293;51.464;-2.566;2023-05-02T12:45:30;6.93;;;5.03;;
10491;SDS011;5293;51.464;-2.566;2023-05-02T12:48:01;5.60;;;5.03;;
10491;SDS011;5293;51.464;-2.566;2023-05-02T12:50:41;8.37;;;6.20;;
10491;SDS011;5293;51.464;-2.566;2023-05-02T12:53:07;6.23;;;5.00;;
10491;SDS011;5293;51.464;-2.566;2023-05-02T12:55:33;7.03;;;5.67;;
10491;SDS011;5293;51.464;-2.566;2023-05-02T12:58:02;9.37;;;5.93;;
10491;SDS011;5293;51.464;-2.566;2023-05-02T13:00:29;7.93;;;5.10;;
10491;SDS011;5293;51.464;-2.566;2023-05-02T13:02:56;8.10;;;5.45;;
10491;SDS011;5293;51.464;-2.566;2023-05-02T13:05:22;6.67;;;5.10;;
10491;SDS011;5293;51.464;-2.566;2023-05-02T13:07:48;6.37;;;4.70;;
10491;SDS011;5293;51.464;-2.566;2023-05-02T13:10:14;7.07;;;4.77;;
10491;SDS011;5293;51.464;-2.566;2023-05-02T13:12:42;7.63;;;4.63;;
10491;SDS011;5293;51.464;-2.566;2023-05-02T13:15:09;5.03;;;4.23;;
10491;SDS011;5293;51.464;-2.566;2023-05-02T13:17:35;5.80;;;4.57;;
10491;SDS011;5293;51.464;-2.566;2023-05-02T13:20:01;7.13;;;5.30;;
10491;SDS011;5293;51.464;-2.566;2023-05-02T13:22:27;6.57;;;4.87;;
10491;SDS011;5293;51.464;-2.566;2023-05-02T13:24:53;6.17;;;4.40;;
10491;SDS011;5293;51.464;-2.566;2023-05-02T13:27:21;5.20;;;4.67;;
10491;SDS011;5293;51.464;-2.566;2023-05-02T13:29:50;8.50;;;4.47;;
10491;SDS011;5293;51.464;-2.566;2023-05-02T13:32:16;6.33;;;4.60;;
10491;SDS011;5293;51.464;-2.566;2023-05-02T13:34:42;4.63;;;4.23;;
10491;SDS011;5293;51.464;-2.566;2023-05-02T13:37:08;6.10;;;4.07;;
10491;SDS011;5293;51.464;-2.566;2023-05-02T13:39:34;5.77;;;3.90;;
10491;SDS011;5293;51.464;-2.566;2023-05-02T13:42:00;4.27;;;3.87;;
10491;SDS011;5293;51.464;-2.566;2023-05-02T13:44:30;7.87;;;4.17;;
10491;SDS011;5293;51.464;-2.566;2023-05-02T13:46:56;7.23;;;4.23;;
10491;SDS011;5293;51.464;-2.566;2023-05-02T13:49:21;5.27;;;4.07;;
10491;SDS011;5293;51.464;-2.566;2023-05-02T13:51:47;5.20;;;4.33;;
10491;SDS011;5293;51.464;-2.566;2023-05-02T13:54:13;7.00;;;4.20;;
10491;SDS011;5293;51.464;-2.566;2023-05-02T13:56:39;9.13;;;4.60;;
10491;SDS011;5293;51.464;-2.566;2023-05-02T13:59:06;6.53;;;4.27;;
10491;SDS011;5293;51.464;-2.566;2023-05-02T14:01:32;5.65;;;4.40;;
10491;SDS011;5293;51.464;-2.566;2023-05-02T14:03:58;7.75;;;4.68;;
10491;SDS011;5293;51.464;-2.566;2023-05-02T14:06:24;7.37;;;5.33;;
10491;SDS011;5293;51.464;-2.566;2023-05-02T14:08:50;8.23;;;5.10;;
10491;SDS011;5293;51.464;-2.566;2023-05-02T14:11:15;5.40;;;4.60;;
10491;SDS011;5293;51.464;-2.566;2023-05-02T14:13:41;7.00;;;5.47;;
10491;SDS011;5293;51.464;-2.566;2023-05-02T14:16:07;9.37;;;4.47;;
10491;SDS011;5293;51.464;-2.566;2023-05-02T14:18:33;7.23;;;4.70;;
10491;SDS011;5293;51.464;-2.566;2023-05-02T14:20:58;8.93;;;4.93;;
10491;SDS011;5293;51.464;-2.566;2023-05-02T14:23:24;9.30;;;4.47;;
10491;SDS011;5293;51.464;-2.566;2023-05-02T14:25:52;5.57;;;4.17;;
10491;SDS011;5293;51.464;-2.566;2023-05-02T14:28:18;6.23;;;4.10;;
10491;SDS011;5293;51.464;-2.566;2023-05-02T14:30:44;5.63;;;4.47;;
10491;SDS011;5293;51.464;-2.566;2023-05-02T14:33:09;6.30;;;5.23;;
10491;SDS011;5293;51.464;-2.566;2023-05-02T14:35:35;4.93;;;4.10;;
10491;SDS011;5293;51.464;-2.566;2023-05-02T14:38:01;5.77;;;4.03;;
10491;SDS011;5293;51.464;-2.566;2023-05-02T14:40:27;7.60;;;4.30;;
10491;SDS011;5293;51.464;-2.566;2023-05-02T14:42:53;5.30;;;4.00;;
10491;SDS011;5293;51.464;-2.566;2023-05-02T14:45:18;5.60;;;3.47;;
10491;SDS011;5293;51.464;-2.566;2023-05-02T14:47:44;5.23;;;3.73;;
10491;SDS011;5293;51.464;-2.566;2023-05-02T14:50:11;5.30;;;4.23;;
10491;SDS011;5293;51.464;-2.566;2023-05-02T14:52:36;5.20;;;4.10;;
10491;SDS011;5293;51.464;-2.566;2023-05-02T14:55:02;7.60;;;4.93;;
10491;SDS011;5293;51.464;-2.566;2023-05-02T14:57:28;6.17;;;5.20;;
10491;SDS011;5293;51.464;-2.566;2023-05-02T14:59:54;5.23;;;4.20;;
10491;SDS011;5293;51.464;-2.566;2023-05-02T15:02:21;7.67;;;4.90;;
10491;SDS011;5293;51.464;-2.566;2023-05-02T15:04:46;5.03;;;4.53;;
10491;SDS011;5293;51.464;-2.566;2023-05-02T15:10:20;7.07;;;3.77;;
10491;SDS011;5293;51.464;-2.566;2023-05-02T15:12:45;6.13;;;4.37;;
10491;SDS011;5293;51.464;-2.566;2023-05-02T15:15:14;8.33;;;5.07;;
10491;SDS011;5293;51.464;-2.566;2023-05-02T15:17:48;8.40;;;4.50;;
10491;SDS011;5293;51.464;-2.566;2023-05-02T15:20:17;5.67;;;4.27;;
10491;SDS011;5293;51.464;-2.566;2023-05-02T15:22:43;6.13;;;4.20;;
10491;SDS011;5293;51.464;-2.566;2023-05-02T15:25:09;4.87;;;3.87;;